createdAt,value
2022-10-01T00:02:09.429Z,101295.20
2022-10-01T00:04:38.348Z,101299.41
2022-10-01T00:07:10.792Z,101294.21
2022-10-01T00:09:39.689Z,101295.63
2022-10-01T00:12:08.176Z,101293.08
2022-10-01T00:14:39.361Z,101293.90
2022-10-01T00:17:07.695Z,101300.74
2022-10-01T00:19:36.072Z,101302.12
2022-10-01T00:22:04.478Z,101300.41
2022-10-01T00:24:32.728Z,101299.45
2022-10-01T00:27:00.904Z,101299.69
2022-10-01T00:29:29.498Z,101300.20
2022-10-01T00:31:58.603Z,101303.14
2022-10-01T00:34:28.635Z,101311.46
2022-10-01T00:36:57.082Z,101317.89
2022-10-01T00:39:25.256Z,101317.55
2022-10-01T00:41:53.535Z,101311.83
2022-10-01T00:44:36.559Z,101312.10
2022-10-01T00:47:14.254Z,101309.61
2022-10-01T00:49:43.659Z,101302.96
2022-10-01T00:52:17.146Z,101300.98
2022-10-01T00:54:49.670Z,101303.45
2022-10-01T00:57:22.194Z,101308.05
2022-10-01T00:59:51.102Z,101306.17
2022-10-01T01:02:19.517Z,101304.93
2022-10-01T01:04:48.579Z,101311.09
2022-10-01T01:07:17.162Z,101310.55
2022-10-01T01:09:48.202Z,101311.77
2022-10-01T01:12:26.933Z,101316.25
2022-10-01T01:15:15.589Z,101318.48
2022-10-01T01:18:03.415Z,101315.98
2022-10-01T01:21:09.581Z,101321.76
2022-10-01T01:24:04.280Z,101322.70
2022-10-01T01:26:42.589Z,101323.42
2022-10-01T01:29:42.714Z,101321.11
2022-10-01T01:32:19.418Z,101325.61
2022-10-01T01:34:49.391Z,101326.64
2022-10-01T01:37:20.037Z,101328.83
2022-10-01T01:39:52.218Z,101332.02
2022-10-01T01:42:47.022Z,101329.62
2022-10-01T01:45:19.693Z,101329.56
2022-10-01T01:47:48.782Z,101326.39
2022-10-01T01:50:17.673Z,101330.70
2022-10-01T01:52:46.399Z,101331.17
2022-10-01T01:55:14.943Z,101333.29
2022-10-01T01:57:45.081Z,101338.93
2022-10-01T02:00:14.853Z,101336.05
2022-10-01T02:02:48.354Z,101338.17
2022-10-01T02:05:20.065Z,101337.04
2022-10-01T02:08:14.113Z,101339.77
2022-10-01T02:10:55.746Z,101339.73
2022-10-01T02:13:48.558Z,101340.58
2022-10-01T02:16:31.066Z,101341.92
2022-10-01T02:19:17.366Z,101341.09
2022-10-01T02:21:58.647Z,101341.67
2022-10-01T02:24:49.061Z,101347.80
2022-10-01T02:27:33.297Z,101353.35
2022-10-01T02:30:08.130Z,101356.34
2022-10-01T02:32:39.352Z,101361.01
2022-10-01T02:35:10.529Z,101362.73
2022-10-01T02:37:40.750Z,101359.62
2022-10-01T02:40:16.285Z,101353.48
2022-10-01T02:42:50.262Z,101353.41
2022-10-01T02:45:23.184Z,101354.78
2022-10-01T02:47:57.657Z,101352.83
2022-10-01T02:50:31.593Z,101352.42
2022-10-01T02:53:04.793Z,101355.88
2022-10-01T02:55:38.101Z,101355.58
2022-10-01T02:58:07.813Z,101361.45
2022-10-01T03:00:36.524Z,101359.65
2022-10-01T03:03:04.878Z,101357.66
2022-10-01T03:05:33.059Z,101354.51
2022-10-01T03:08:01.866Z,101350.88
2022-10-01T03:10:30.123Z,101347.23
2022-10-01T03:13:00.546Z,101343.70
2022-10-01T03:15:29.347Z,101341.39
2022-10-01T03:17:57.816Z,101341.27
2022-10-01T03:20:27.222Z,101339.40
2022-10-01T03:22:55.599Z,101333.90
2022-10-01T03:25:24.008Z,101327.91
2022-10-01T03:27:52.786Z,101329.30
2022-10-01T03:30:22.476Z,101335.52
2022-10-01T03:32:50.878Z,101334.03
2022-10-01T03:35:19.236Z,101335.06
2022-10-01T03:37:48.025Z,101337.27
2022-10-01T03:40:16.519Z,101340.62
2022-10-01T03:42:44.687Z,101343.02
2022-10-01T03:45:13.270Z,101343.52
2022-10-01T03:47:41.549Z,101342.83
2022-10-01T03:50:09.821Z,101348.50
2022-10-01T03:52:38.199Z,101345.47
2022-10-01T03:55:07.401Z,101350.08
2022-10-01T03:57:35.781Z,101356.16
2022-10-01T04:00:05.641Z,101355.77
2022-10-01T04:02:34.082Z,101357.38
2022-10-01T04:05:02.557Z,101354.67
2022-10-01T04:07:30.832Z,101354.41
2022-10-01T04:09:59.318Z,101361.56
2022-10-01T04:12:27.594Z,101366.15
2022-10-01T04:14:55.766Z,101366.18
2022-10-01T04:17:24.252Z,101370.64
2022-10-01T04:19:52.645Z,101370.80
2022-10-01T04:22:21.026Z,101371.78
2022-10-01T04:24:49.486Z,101380.61
2022-10-01T04:27:17.967Z,101386.61
2022-10-01T04:29:46.349Z,101390.14
2022-10-01T04:32:16.449Z,101390.83
2022-10-01T04:34:53.552Z,101393.89
2022-10-01T04:37:23.056Z,101395.78
2022-10-01T04:39:51.335Z,101399.27
2022-10-01T04:42:20.520Z,101403.87
2022-10-01T04:44:49.220Z,101403.13
2022-10-01T04:47:17.803Z,101400.84
2022-10-01T04:49:46.183Z,101405.14
2022-10-01T04:52:14.460Z,101404.80
2022-10-01T04:54:42.740Z,101405.84
2022-10-01T04:57:12.453Z,101407.63
2022-10-01T04:59:40.829Z,101405.35
2022-10-01T05:02:09.256Z,101405.97
2022-10-01T05:04:37.688Z,101406.88
2022-10-01T05:07:06.173Z,101411.51
2022-10-01T05:09:34.548Z,101408.02
2022-10-01T05:12:02.927Z,101410.08
2022-10-01T05:14:31.921Z,101411.12
2022-10-01T05:17:00.303Z,101414.41
2022-10-01T05:19:31.266Z,101407.04
2022-10-01T05:22:00.132Z,101403.15
2022-10-01T05:24:29.534Z,101402.47
2022-10-01T05:26:58.427Z,101400.50
2022-10-01T05:29:26.804Z,101400.52
2022-10-01T05:31:55.956Z,101399.51
2022-10-01T05:34:24.796Z,101404.88
2022-10-01T05:36:53.070Z,101409.53
2022-10-01T05:39:21.448Z,101413.46
2022-10-01T05:41:49.828Z,101423.73
2022-10-01T05:44:18.509Z,101426.56
2022-10-01T05:46:47.304Z,101431.74
2022-10-01T05:49:16.661Z,101432.61
2022-10-01T05:51:45.189Z,101438.27
2022-10-01T05:54:14.123Z,101436.50
2022-10-01T05:56:42.563Z,101437.41
2022-10-01T05:59:10.855Z,101436.59
2022-10-01T06:01:39.159Z,101434.52
2022-10-01T06:04:07.598Z,101435.23
2022-10-01T06:06:36.084Z,101440.93
2022-10-01T11:30:47.803Z,101123.10
2022-10-01T11:33:27.960Z,101123.64
2022-10-01T11:36:01.872Z,101116.77
2022-10-01T11:38:51.035Z,101117.61
2022-10-01T11:41:34.059Z,101118.98
2022-10-01T11:44:04.893Z,101120.09
2022-10-01T11:46:54.418Z,101115.95
2022-10-01T11:49:42.956Z,101105.59
2022-10-01T11:52:20.101Z,101109.30
2022-10-01T11:55:52.075Z,101104.30
2022-10-01T11:58:51.389Z,101105.23
2022-10-01T12:01:29.265Z,101104.27
2022-10-01T12:04:22.467Z,101105.82
2022-10-01T12:06:50.619Z,101108.57
2022-10-01T12:09:52.695Z,101110.54
2022-10-01T12:12:33.591Z,101108.00
2022-10-01T12:15:27.088Z,101101.27
2022-10-01T12:18:00.219Z,101100.55
2022-10-01T12:21:04.441Z,101101.85
2022-10-01T12:23:40.209Z,101097.76
2022-10-01T12:26:22.096Z,101090.79
2022-10-01T12:29:41.361Z,101085.05
2022-10-01T12:32:30.627Z,101079.33
2022-10-01T12:35:39.152Z,101072.05
2022-10-01T12:38:33.745Z,101064.55
2022-10-01T12:41:27.724Z,101065.25
2022-10-01T12:44:00.960Z,101065.23
2022-10-01T12:46:43.389Z,101062.80
2022-10-01T12:49:22.616Z,101059.98
2022-10-01T12:52:19.918Z,101057.27
2022-10-01T12:55:23.749Z,101048.27
2022-10-01T12:58:02.653Z,101038.22
2022-10-01T13:00:37.820Z,101033.52
2022-10-01T13:03:28.287Z,101031.52
2022-10-01T13:06:06.397Z,101021.00
2022-10-01T13:08:52.706Z,101016.20
2022-10-01T13:11:26.612Z,101016.54
2022-10-01T13:13:55.499Z,101011.34
2022-10-01T13:16:37.952Z,101005.73
2022-10-01T13:19:14.783Z,101002.30
2022-10-01T13:22:10.711Z,100996.63
2022-10-01T13:24:45.755Z,100989.02
2022-10-01T13:27:19.242Z,100982.88
2022-10-01T13:29:59.810Z,100984.42
2022-10-01T13:32:46.415Z,100979.39
2022-10-01T13:35:35.615Z,100974.23
2022-10-01T13:38:29.522Z,100969.34
2022-10-01T13:41:04.189Z,100962.28
2022-10-01T13:43:34.717Z,100960.55
2022-10-01T13:46:12.846Z,100957.48
2022-10-01T13:48:47.790Z,100951.27
2022-10-01T13:51:16.345Z,100947.13
2022-10-01T13:53:45.165Z,100937.89
2022-10-01T13:56:15.700Z,100933.73
2022-10-01T13:58:45.748Z,100934.19
2022-10-01T14:01:21.351Z,100934.38
2022-10-01T14:03:57.796Z,100931.41
2022-10-01T14:06:43.997Z,100925.23
2022-10-01T14:09:17.810Z,100916.26
2022-10-01T14:12:08.273Z,100909.06
2022-10-01T14:14:59.277Z,100899.89
2022-10-01T14:17:32.180Z,100889.90
2022-10-01T14:20:01.345Z,100887.92
2022-10-01T14:22:49.648Z,100881.80
2022-10-01T14:25:26.223Z,100875.71
2022-10-01T14:28:12.332Z,100870.69
2022-10-01T14:30:51.102Z,100863.59
2022-10-01T14:33:25.066Z,100862.46
2022-10-01T14:36:02.126Z,100858.60
2022-10-01T14:38:31.327Z,100854.48
2022-10-01T14:40:59.498Z,100854.17
2022-10-01T14:43:30.295Z,100845.90
2022-10-01T14:46:07.011Z,100840.05
2022-10-01T14:48:38.044Z,100838.01
2022-10-01T14:51:08.190Z,100834.34
2022-10-01T14:53:38.260Z,100829.53
2022-10-01T14:56:08.985Z,100831.11
2022-10-01T14:58:43.349Z,100830.59
2022-10-01T15:01:19.759Z,100823.11
2022-10-01T15:03:48.951Z,100818.77
2022-10-01T15:06:21.786Z,100818.16
2022-10-01T15:08:55.079Z,100824.45
2022-10-01T15:11:27.997Z,100827.20
2022-10-01T15:14:02.509Z,100826.33
2022-10-01T15:16:33.144Z,100824.95
2022-10-01T15:19:03.850Z,100814.58
2022-10-01T15:21:59.008Z,100812.13
2022-10-01T15:24:33.886Z,100806.66
2022-10-01T15:27:02.168Z,100808.71
2022-10-01T15:29:30.486Z,100806.11
2022-10-01T15:31:59.014Z,100801.83
2022-10-01T15:34:28.196Z,100800.68
2022-10-01T15:36:57.291Z,100798.21
2022-10-01T15:39:34.826Z,100792.66
2022-10-01T15:42:21.743Z,100791.05
2022-10-01T15:44:50.529Z,100793.13
2022-10-01T15:47:24.748Z,100795.06
2022-10-01T15:50:10.942Z,100792.83
2022-10-01T15:52:54.384Z,100791.88
2022-10-01T15:55:44.139Z,100799.73
2022-10-01T15:58:20.128Z,100795.13
2022-10-01T16:00:49.051Z,100791.64
2022-10-01T16:03:33.570Z,100792.30
2022-10-01T16:06:03.894Z,100790.40
2022-10-01T16:08:49.162Z,100788.46
2022-10-01T16:11:20.929Z,100790.35
2022-10-01T16:13:50.888Z,100786.55
2022-10-01T16:16:28.242Z,100778.46
2022-10-01T16:19:31.322Z,100769.06
2022-10-01T16:22:32.831Z,100771.18
2022-10-01T16:25:23.992Z,100767.30
2022-10-01T16:28:04.076Z,100755.52
2022-10-01T16:30:34.267Z,100745.71
2022-10-01T16:33:05.456Z,100746.91
2022-10-01T16:35:36.182Z,100748.38
2022-10-01T16:38:09.546Z,100745.85
2022-10-01T16:40:40.496Z,100748.23
2022-10-01T16:43:18.966Z,100745.73
2022-10-01T16:45:47.236Z,100740.30
2022-10-01T16:48:19.812Z,100730.92
2022-10-01T16:50:48.336Z,100721.41
2022-10-01T16:53:18.569Z,100714.23
2022-10-01T16:55:47.449Z,100708.02
2022-10-01T16:58:16.346Z,100709.15
2022-10-01T17:00:44.586Z,100702.06
2022-10-01T17:03:18.579Z,100695.60
2022-10-01T17:05:47.109Z,100691.00
2022-10-01T17:08:16.129Z,100685.27
2022-10-01T17:10:45.613Z,100673.92
2022-10-01T17:13:14.829Z,100674.25
2022-10-01T17:15:43.907Z,100667.61
2022-10-01T17:18:12.510Z,100666.84
2022-10-01T17:20:40.772Z,100663.73
2022-10-01T17:23:11.298Z,100656.02
2022-10-01T17:25:40.393Z,100646.28
2022-10-01T17:28:14.794Z,100638.52
2022-10-01T17:30:44.628Z,100631.54
2022-10-01T17:33:14.542Z,100631.52
2022-10-01T17:35:51.818Z,100629.87
2022-10-01T17:38:21.309Z,100623.38
2022-10-01T17:40:56.174Z,100618.50
2022-10-01T17:43:25.365Z,100616.73
2022-10-01T17:45:58.971Z,100620.50
2022-10-01T17:48:28.491Z,100622.44
2022-10-01T17:51:02.078Z,100626.34
2022-10-01T17:53:35.948Z,100625.23
2022-10-01T17:56:18.700Z,100622.13
2022-10-01T17:58:47.599Z,100615.48
2022-10-01T18:01:20.118Z,100603.11
2022-10-01T18:03:53.156Z,100597.54
2022-10-01T18:06:22.352Z,100606.86
2022-10-01T18:08:55.726Z,100608.20
2022-10-01T18:11:27.510Z,100603.85
2022-10-01T18:13:55.795Z,100591.13
2022-10-01T18:16:25.201Z,100581.32
2022-10-01T18:21:47.342Z,100571.41
2022-10-01T18:24:16.745Z,100562.24
2022-10-01T18:26:46.050Z,100547.90
2022-10-01T18:29:27.187Z,100546.66
2022-10-01T18:32:07.792Z,100551.56
2022-10-01T18:34:54.715Z,100546.48
2022-10-01T18:37:46.793Z,100546.58
2022-10-01T18:40:19.423Z,100553.85
2022-10-01T18:43:03.468Z,100549.42
2022-10-01T18:45:40.908Z,100545.96
2022-10-01T18:48:39.853Z,100529.02
2022-10-01T18:51:29.434Z,100510.18
2022-10-01T18:54:22.796Z,100510.26
2022-10-01T18:57:01.240Z,100510.36
2022-10-01T18:59:54.376Z,100506.11
2022-10-01T19:02:33.962Z,100501.92
2022-10-01T19:05:43.663Z,100499.69
2022-10-01T19:08:47.062Z,100507.39
2022-10-01T19:11:27.322Z,100501.45
2022-10-01T19:14:08.399Z,100492.54
2022-10-01T19:16:39.710Z,100492.27
2022-10-01T19:19:18.469Z,100499.20
2022-10-01T19:22:06.919Z,100497.70
2022-10-01T19:24:48.120Z,100497.95
2022-10-01T19:27:25.231Z,100499.38
2022-10-01T19:30:14.181Z,100492.28
2022-10-01T19:32:56.971Z,100485.50
2022-10-01T19:35:40.428Z,100474.48
2022-10-01T19:38:19.085Z,100474.36
2022-10-01T19:41:28.872Z,100466.14
2022-10-01T19:44:12.656Z,100456.52
2022-10-01T19:46:41.879Z,100450.56
2022-10-01T19:49:09.993Z,100447.91
2022-10-01T19:51:44.809Z,100444.72
2022-10-01T19:54:18.539Z,100444.67
2022-10-01T19:56:51.444Z,100445.36
2022-10-01T19:59:20.605Z,100441.70
2022-10-01T20:02:02.651Z,100445.19
2022-10-01T20:04:38.626Z,100448.47
2022-10-01T20:07:29.837Z,100441.88
2022-10-01T20:10:10.262Z,100433.89
2022-10-01T20:13:15.606Z,100429.02
2022-10-01T20:16:00.511Z,100423.73
2022-10-01T20:18:41.832Z,100420.50
2022-10-01T20:21:40.428Z,100424.30
2022-10-01T20:24:20.366Z,100423.83
2022-10-01T20:26:54.089Z,100420.73
2022-10-01T20:29:43.895Z,100416.05
2022-10-01T20:32:35.325Z,100413.55
2022-10-01T20:35:13.305Z,100402.39
2022-10-01T20:38:02.630Z,100404.56
2022-10-01T20:40:37.531Z,100400.35
2022-10-01T20:43:44.720Z,100402.23
2022-10-01T20:46:19.842Z,100395.39
2022-10-01T20:48:52.320Z,100400.71
2022-10-01T20:52:10.045Z,100397.97
2022-10-01T20:54:44.788Z,100390.58
2022-10-01T20:57:46.915Z,100382.31
2022-10-01T21:00:21.237Z,100375.15
2022-10-01T21:02:56.116Z,100381.92
2022-10-01T21:05:33.383Z,100386.48
2022-10-01T21:08:08.192Z,100381.19
2022-10-01T21:10:46.889Z,100370.86
2022-10-01T21:13:30.444Z,100369.86
2022-10-01T21:16:10.712Z,100363.94
2022-10-01T21:18:38.976Z,100365.34
2022-10-01T21:21:23.486Z,100367.29
2022-10-01T21:24:14.238Z,100369.16
2022-10-01T21:26:57.469Z,100371.77
2022-10-01T21:29:34.652Z,100370.38
2022-10-01T21:32:14.910Z,100376.08
2022-10-01T21:35:15.037Z,100369.21
2022-10-01T21:38:07.580Z,100361.48
2022-10-01T21:40:53.061Z,100360.43
2022-10-01T21:43:56.468Z,100359.30
2022-10-01T21:46:52.999Z,100366.52
2022-10-01T21:49:42.577Z,100364.52
2022-10-01T21:52:11.161Z,100360.48
2022-10-01T21:55:13.636Z,100367.92
2022-10-01T21:57:51.853Z,100377.55
2022-10-01T22:00:25.041Z,100382.95
2022-10-01T22:03:27.623Z,100377.96
2022-10-01T22:05:58.460Z,100380.95
2022-10-01T22:09:03.707Z,100387.16
2022-10-01T22:11:37.091Z,100400.40
2022-10-01T22:14:14.623Z,100361.32
2022-10-01T22:16:59.151Z,100341.45
2022-10-01T22:19:38.797Z,100335.80
2022-10-01T22:22:15.151Z,100309.26
2022-10-01T22:24:47.762Z,100289.09
2022-10-01T22:27:33.634Z,100290.63
2022-10-01T22:30:01.808Z,100283.95
2022-10-01T22:32:35.924Z,100279.81
2022-10-01T22:35:09.370Z,100278.17
2022-10-01T22:37:42.369Z,100272.04
2022-10-01T22:40:18.308Z,100263.19
2022-10-01T22:43:00.365Z,100256.64
2022-10-01T22:45:38.751Z,100261.38
2022-10-01T22:48:40.233Z,100263.77
2022-10-01T22:51:31.545Z,100267.33
2022-10-01T22:54:15.594Z,100274.66
2022-10-01T22:56:49.707Z,100290.28
2022-10-01T22:59:36.522Z,100317.97
2022-10-01T23:02:27.792Z,100347.44
2022-10-01T23:05:17.107Z,100353.91
2022-10-01T23:08:13.132Z,100361.82
2022-10-01T23:10:50.218Z,100384.27
2022-10-01T23:13:27.094Z,100365.25
2022-10-01T23:16:15.209Z,100367.84
2022-10-01T23:18:53.550Z,100383.41
2022-10-01T23:21:49.271Z,100388.89
2022-10-01T23:24:29.324Z,100387.91
2022-10-01T23:27:14.497Z,100415.02
2022-10-01T23:29:48.406Z,100412.81
2022-10-01T23:32:47.302Z,100417.98
2022-10-01T23:35:22.336Z,100431.86
2022-10-01T23:38:08.944Z,100436.36
2022-10-01T23:40:41.282Z,100421.36
2022-10-01T23:43:28.646Z,100427.75
2022-10-01T23:46:13.367Z,100433.21
2022-10-01T23:49:03.902Z,100422.38
2022-10-01T23:51:40.264Z,100418.61
2022-10-01T23:54:19.222Z,100418.70
2022-10-01T23:56:49.838Z,100416.11
2022-10-01T23:59:41.042Z,100412.48
